sensor_id;sensor_type;location;lat;lon;timestamp;P1;durP1;ratioP1;P2;durP2;ratioP2
75044;SDS011;63614;56.026;35.960;2023-07-13T00:01:28;10.88;;;2.40;;
75044;SDS011;63614;56.026;35.960;2023-07-13T00:03:56;9.88;;;2.17;;
75044;SDS011;63614;56.026;35.960;2023-07-13T00:06:23;7.63;;;2.30;;
75044;SDS011;63614;56.026;35.960;2023-07-13T00:08:51;12.60;;;2.45;;
75044;SDS011;63614;56.026;35.960;2023-07-13T00:11:16;4.70;;;2.30;;
75044;SDS011;63614;56.026;35.960;2023-07-13T00:13:45;8.70;;;2.50;;
75044;SDS011;63614;56.026;35.960;2023-07-13T00:16:11;9.35;;;2.33;;
75044;SDS011;63614;56.026;35.960;2023-07-13T00:18:39;5.90;;;2.70;;
75044;SDS011;63614;56.026;35.960;2023-07-13T00:21:05;5.25;;;2.30;;
75044;SDS011;63614;56.026;35.960;2023-07-13T00:23:35;8.98;;;2.60;;
75044;SDS011;63614;56.026;35.960;2023-07-13T00:26:03;5.07;;;2.40;;
75044;SDS011;63614;56.026;35.960;2023-07-13T00:28:33;13.13;;;2.75;;
75044;SDS011;63614;56.026;35.960;2023-07-13T00:31:00;7.57;;;2.65;;
75044;SDS011;63614;56.026;35.960;2023-07-13T00:33:28;8.82;;;2.72;;
75044;SDS011;63614;56.026;35.960;2023-07-13T00:35:56;12.82;;;2.63;;
75044;SDS011;63614;56.026;35.960;2023-07-13T00:38:23;7.05;;;2.80;;
75044;SDS011;63614;56.026;35.960;2023-07-13T00:40:48;7.63;;;2.55;;
75044;SDS011;63614;56.026;35.960;2023-07-13T00:43:19;7.10;;;2.90;;
75044;SDS011;63614;56.026;35.960;2023-07-13T00:48:25;4.93;;;2.63;;
75044;SDS011;63614;56.026;35.960;2023-07-13T00:50:59;7.15;;;2.50;;
75044;SDS011;63614;56.026;35.960;2023-07-13T00:55:55;8.30;;;2.20;;
75044;SDS011;63614;56.026;35.960;2023-07-13T00:58:25;11.57;;;2.55;;
75044;SDS011;63614;56.026;35.960;2023-07-13T01:00:53;12.10;;;2.35;;
75044;SDS011;63614;56.026;35.960;2023-07-13T01:03:19;5.68;;;2.50;;
75044;SDS011;63614;56.026;35.960;2023-07-13T01:05:46;6.45;;;2.63;;
75044;SDS011;63614;56.026;35.960;2023-07-13T01:08:14;13.93;;;2.72;;
75044;SDS011;63614;56.026;35.960;2023-07-13T01:10:42;8.25;;;2.90;;
75044;SDS011;63614;56.026;35.960;2023-07-13T01:13:18;8.07;;;2.75;;
75044;SDS011;63614;56.026;35.960;2023-07-13T01:15:45;5.30;;;2.40;;
75044;SDS011;63614;56.026;35.960;2023-07-13T01:18:14;17.77;;;2.72;;
75044;SDS011;63614;56.026;35.960;2023-07-13T01:21:03;10.52;;;2.65;;
75044;SDS011;63614;56.026;35.960;2023-07-13T01:23:30;8.38;;;1.98;;
75044;SDS011;63614;56.026;35.960;2023-07-13T01:25:57;9.55;;;2.53;;
75044;SDS011;63614;56.026;35.960;2023-07-13T01:28:24;10.40;;;2.40;;
75044;SDS011;63614;56.026;35.960;2023-07-13T01:30:56;4.78;;;2.42;;
75044;SDS011;63614;56.026;35.960;2023-07-13T01:33:23;4.70;;;2.47;;
75044;SDS011;63614;56.026;35.960;2023-07-13T01:35:49;10.18;;;2.55;;
75044;SDS011;63614;56.026;35.960;2023-07-13T01:38:19;5.53;;;2.37;;
75044;SDS011;63614;56.026;35.960;2023-07-13T01:40:47;7.82;;;2.85;;
75044;SDS011;63614;56.026;35.960;2023-07-13T01:43:12;5.43;;;2.55;;
75044;SDS011;63614;56.026;35.960;2023-07-13T01:45:38;6.18;;;2.40;;
75044;SDS011;63614;56.026;35.960;2023-07-13T01:48:04;8.43;;;2.50;;
75044;SDS011;63614;56.026;35.960;2023-07-13T01:50:32;10.15;;;3.00;;
75044;SDS011;63614;56.026;35.960;2023-07-13T01:52:58;12.07;;;2.40;;
75044;SDS011;63614;56.026;35.960;2023-07-13T01:55:30;7.00;;;3.00;;
75044;SDS011;63614;56.026;35.960;2023-07-13T01:57:56;8.80;;;2.85;;
75044;SDS011;63614;56.026;35.960;2023-07-13T02:00:22;11.35;;;2.72;;
75044;SDS011;63614;56.026;35.960;2023-07-13T02:02:51;6.18;;;2.80;;
75044;SDS011;63614;56.026;35.960;2023-07-13T02:05:17;8.25;;;2.67;;
75044;SDS011;63614;56.026;35.960;2023-07-13T02:07:43;10.32;;;2.40;;
75044;SDS011;63614;56.026;35.960;2023-07-13T02:10:09;10.32;;;2.80;;
75044;SDS011;63614;56.026;35.960;2023-07-13T02:12:36;8.20;;;3.10;;
75044;SDS011;63614;56.026;35.960;2023-07-13T02:15:03;5.93;;;2.60;;
75044;SDS011;63614;56.026;35.960;2023-07-13T02:17:31;8.60;;;2.58;;
75044;SDS011;63614;56.026;35.960;2023-07-13T02:19:57;7.13;;;2.70;;
75044;SDS011;63614;56.026;35.960;2023-07-13T02:22:23;13.50;;;2.90;;
75044;SDS011;63614;56.026;35.960;2023-07-13T02:24:49;8.30;;;2.70;;
75044;SDS011;63614;56.026;35.960;2023-07-13T02:27:18;8.50;;;2.90;;
75044;SDS011;63614;56.026;35.960;2023-07-13T02:29:47;7.55;;;2.70;;
75044;SDS011;63614;56.026;35.960;2023-07-13T02:32:16;6.18;;;2.80;;
75044;SDS011;63614;56.026;35.960;2023-07-13T02:34:43;10.13;;;2.90;;
75044;SDS011;63614;56.026;35.960;2023-07-13T02:37:09;17.40;;;2.80;;
75044;SDS011;63614;56.026;35.960;2023-07-13T02:39:38;7.10;;;2.88;;
75044;SDS011;63614;56.026;35.960;2023-07-13T02:42:06;6.75;;;2.63;;
75044;SDS011;63614;56.026;35.960;2023-07-13T02:44:32;6.82;;;2.70;;
75044;SDS011;63614;56.026;35.960;2023-07-13T02:47:00;7.03;;;2.80;;
75044;SDS011;63614;56.026;35.960;2023-07-13T02:49:29;11.25;;;2.70;;
75044;SDS011;63614;56.026;35.960;2023-07-13T02:51:54;10.73;;;2.40;;
75044;SDS011;63614;56.026;35.960;2023-07-13T02:54:20;6.10;;;2.17;;
75044;SDS011;63614;56.026;35.960;2023-07-13T02:56:48;5.30;;;2.45;;
75044;SDS011;63614;56.026;35.960;2023-07-13T02:59:14;5.28;;;2.25;;
75044;SDS011;63614;56.026;35.960;2023-07-13T03:01:40;5.88;;;2.30;;
75044;SDS011;63614;56.026;35.960;2023-07-13T03:04:06;8.05;;;2.72;;
75044;SDS011;63614;56.026;35.960;2023-07-13T03:06:34;8.48;;;2.85;;
75044;SDS011;63614;56.026;35.960;2023-07-13T03:09:00;8.27;;;3.33;;
75044;SDS011;63614;56.026;35.960;2023-07-13T03:11:28;8.38;;;2.55;;
75044;SDS011;63614;56.026;35.960;2023-07-13T03:14:03;4.40;;;2.50;;
75044;SDS011;63614;56.026;35.960;2023-07-13T03:16:33;4.63;;;2.65;;
75044;SDS011;63614;56.026;35.960;2023-07-13T03:18:59;8.27;;;2.63;;
75044;SDS011;63614;56.026;35.960;2023-07-13T03:21:26;10.40;;;3.10;;
75044;SDS011;63614;56.026;35.960;2023-07-13T03:23:52;8.82;;;2.95;;
75044;SDS011;63614;56.026;35.960;2023-07-13T03:26:19;13.05;;;2.83;;
75044;SDS011;63614;56.026;35.960;2023-07-13T03:28:47;13.00;;;2.72;;
75044;SDS011;63614;56.026;35.960;2023-07-13T03:31:21;6.32;;;2.58;;
75044;SDS011;63614;56.026;35.960;2023-07-13T03:33:51;4.68;;;2.28;;
75044;SDS011;63614;56.026;35.960;2023-07-13T03:36:21;5.70;;;2.40;;
75044;SDS011;63614;56.026;35.960;2023-07-13T03:38:55;5.40;;;2.20;;
75044;SDS011;63614;56.026;35.960;2023-07-13T03:41:25;5.82;;;2.97;;
75044;SDS011;63614;56.026;35.960;2023-07-13T03:43:55;4.95;;;2.40;;
75044;SDS011;63614;56.026;35.960;2023-07-13T03:46:23;10.77;;;3.20;;
75044;SDS011;63614;56.026;35.960;2023-07-13T03:48:49;11.10;;;3.00;;
75044;SDS011;63614;56.026;35.960;2023-07-13T03:51:19;10.57;;;2.85;;
75044;SDS011;63614;56.026;35.960;2023-07-13T03:53:46;10.93;;;2.95;;
75044;SDS011;63614;56.026;35.960;2023-07-13T03:56:15;9.25;;;2.67;;
75044;SDS011;63614;56.026;35.960;2023-07-13T03:58:43;8.65;;;2.83;;
75044;SDS011;63614;56.026;35.960;2023-07-13T04:01:17;11.38;;;3.13;;
75044;SDS011;63614;56.026;35.960;2023-07-13T04:03:44;10.88;;;3.15;;
75044;SDS011;63614;56.026;35.960;2023-07-13T04:06:19;10.35;;;3.10;;
75044;SDS011;63614;56.026;35.960;2023-07-13T04:08:52;9.82;;;2.40;;
75044;SDS011;63614;56.026;35.960;2023-07-13T04:11:25;6.53;;;2.65;;
75044;SDS011;63614;56.026;35.960;2023-07-13T04:13:54;14.00;;;2.50;;
75044;SDS011;63614;56.026;35.960;2023-07-13T04:16:20;9.55;;;2.78;;
75044;SDS011;63614;56.026;35.960;2023-07-13T04:18:46;7.50;;;3.28;;
75044;SDS011;63614;56.026;35.960;2023-07-13T04:21:13;7.03;;;3.10;;
75044;SDS011;63614;56.026;35.960;2023-07-13T04:23:40;14.32;;;4.10;;
75044;SDS011;63614;56.026;35.960;2023-07-13T04:26:06;18.05;;;2.83;;
75044;SDS011;63614;56.026;35.960;2023-07-13T04:28:32;13.07;;;2.37;;
75044;SDS011;63614;56.026;35.960;2023-07-13T04:30:59;7.83;;;2.47;;
75044;SDS011;63614;56.026;35.960;2023-07-13T04:33:27;7.32;;;2.60;;
75044;SDS011;63614;56.026;35.960;2023-07-13T04:35:55;6.72;;;2.10;;
75044;SDS011;63614;56.026;35.960;2023-07-13T04:40:56;6.28;;;2.67;;
75044;SDS011;63614;56.026;35.960;2023-07-13T04:43:27;5.50;;;2.22;;
75044;SDS011;63614;56.026;35.960;2023-07-13T04:45:56;8.57;;;2.35;;
75044;SDS011;63614;56.026;35.960;2023-07-13T04:48:22;8.25;;;2.67;;
75044;SDS011;63614;56.026;35.960;2023-07-13T04:50:54;13.23;;;2.60;;
75044;SDS011;63614;56.026;35.960;2023-07-13T04:53:20;6.85;;;2.78;;
75044;SDS011;63614;56.026;35.960;2023-07-13T04:55:46;8.65;;;2.60;;
75044;SDS011;63614;56.026;35.960;2023-07-13T04:58:14;7.32;;;2.58;;
75044;SDS011;63614;56.026;35.960;2023-07-13T05:00:40;11.75;;;2.58;;
75044;SDS011;63614;56.026;35.960;2023-07-13T05:03:05;10.57;;;2.67;;
75044;SDS011;63614;56.026;35.960;2023-07-13T05:05:31;10.13;;;3.47;;
75044;SDS011;63614;56.026;35.960;2023-07-13T05:08:00;8.52;;;2.55;;
75044;SDS011;63614;56.026;35.960;2023-07-13T05:10:26;6.47;;;2.78;;
75044;SDS011;63614;56.026;35.960;2023-07-13T05:12:52;10.50;;;2.78;;
75044;SDS011;63614;56.026;35.960;2023-07-13T05:15:20;7.80;;;2.60;;
75044;SDS011;63614;56.026;35.960;2023-07-13T05:17:51;7.13;;;2.60;;
75044;SDS011;63614;56.026;35.960;2023-07-13T05:20:18;9.25;;;2.35;;
75044;SDS011;63614;56.026;35.960;2023-07-13T05:22:44;14.32;;;2.92;;
75044;SDS011;63614;56.026;35.960;2023-07-13T05:25:12;6.75;;;3.25;;
75044;SDS011;63614;56.026;35.960;2023-07-13T05:27:38;6.25;;;2.35;;
75044;SDS011;63614;56.026;35.960;2023-07-13T05:30:04;8.98;;;2.58;;
75044;SDS011;63614;56.026;35.960;2023-07-13T05:32:31;6.05;;;2.53;;
75044;SDS011;63614;56.026;35.960;2023-07-13T05:35:00;6.32;;;2.53;;
75044;SDS011;63614;56.026;35.960;2023-07-13T05:37:28;17.70;;;2.85;;
75044;SDS011;63614;56.026;35.960;2023-07-13T05:39:54;10.10;;;2.50;;
75044;SDS011;63614;56.026;35.960;2023-07-13T05:42:19;7.28;;;2.40;;
75044;SDS011;63614;56.026;35.960;2023-07-13T05:44:45;7.07;;;2.78;;
75044;SDS011;63614;56.026;35.960;2023-07-13T05:47:11;10.38;;;2.83;;
75044;SDS011;63614;56.026;35.960;2023-07-13T05:49:39;5.25;;;2.60;;
75044;SDS011;63614;56.026;35.960;2023-07-13T05:52:05;9.88;;;2.58;;
75044;SDS011;63614;56.026;35.960;2023-07-13T05:54:31;10.10;;;2.60;;
75044;SDS011;63614;56.026;35.960;2023-07-13T05:56:56;7.82;;;2.72;;
75044;SDS011;63614;56.026;35.960;2023-07-13T05:59:25;6.25;;;2.78;;
75044;SDS011;63614;56.026;35.960;2023-07-13T06:01:51;9.85;;;2.38;;
75044;SDS011;63614;56.026;35.960;2023-07-13T06:04:18;6.85;;;2.30;;
75044;SDS011;63614;56.026;35.960;2023-07-13T06:06:47;11.25;;;2.67;;
75044;SDS011;63614;56.026;35.960;2023-07-13T06:09:13;8.85;;;2.67;;
75044;SDS011;63614;56.026;35.960;2023-07-13T06:11:39;11.52;;;2.35;;
75044;SDS011;63614;56.026;35.960;2023-07-13T06:14:05;8.93;;;2.53;;
75044;SDS011;63614;56.026;35.960;2023-07-13T06:16:33;9.20;;;2.47;;
75044;SDS011;63614;56.026;35.960;2023-07-13T06:18:59;8.75;;;2.65;;
75044;SDS011;63614;56.026;35.960;2023-07-13T06:21:25;6.03;;;2.40;;
75044;SDS011;63614;56.026;35.960;2023-07-13T06:23:51;5.55;;;2.58;;
75044;SDS011;63614;56.026;35.960;2023-07-13T06:26:23;4.30;;;2.40;;
75044;SDS011;63614;56.026;35.960;2023-07-13T06:28:51;4.88;;;2.45;;
75044;SDS011;63614;56.026;35.960;2023-07-13T06:31:17;11.35;;;2.45;;
75044;SDS011;63614;56.026;35.960;2023-07-13T06:33:43;3.78;;;2.22;;
75044;SDS011;63614;56.026;35.960;2023-07-13T06:36:12;7.72;;;2.47;;
75044;SDS011;63614;56.026;35.960;2023-07-13T06:38:38;10.82;;;2.47;;
75044;SDS011;63614;56.026;35.960;2023-07-13T06:41:05;7.47;;;2.50;;
75044;SDS011;63614;56.026;35.960;2023-07-13T06:43:32;12.57;;;2.30;;
75044;SDS011;63614;56.026;35.960;2023-07-13T06:45:58;7.88;;;2.67;;
75044;SDS011;63614;56.026;35.960;2023-07-13T06:48:29;7.25;;;2.58;;
75044;SDS011;63614;56.026;35.960;2023-07-13T06:50:55;8.77;;;2.38;;
75044;SDS011;63614;56.026;35.960;2023-07-13T06:53:21;8.10;;;2.20;;
75044;SDS011;63614;56.026;35.960;2023-07-13T06:55:50;14.38;;;2.53;;
75044;SDS011;63614;56.026;35.960;2023-07-13T06:58:19;11.77;;;2.50;;
75044;SDS011;63614;56.026;35.960;2023-07-13T07:00:45;10.65;;;2.60;;
75044;SDS011;63614;56.026;35.960;2023-07-13T07:03:11;8.75;;;2.60;;
75044;SDS011;63614;56.026;35.960;2023-07-13T07:05:40;10.15;;;2.80;;
75044;SDS011;63614;56.026;35.960;2023-07-13T07:08:05;8.82;;;2.85;;
75044;SDS011;63614;56.026;35.960;2023-07-13T07:10:31;8.88;;;2.50;;
75044;SDS011;63614;56.026;35.960;2023-07-13T07:12:57;11.82;;;2.72;;
75044;SDS011;63614;56.026;35.960;2023-07-13T07:15:24;8.50;;;2.38;;
75044;SDS011;63614;56.026;35.960;2023-07-13T07:17:49;6.65;;;2.33;;
75044;SDS011;63614;56.026;35.960;2023-07-13T07:20:17;9.93;;;2.80;;
75044;SDS011;63614;56.026;35.960;2023-07-13T07:22:47;5.57;;;2.42;;
75044;SDS011;63614;56.026;35.960;2023-07-13T07:25:13;10.20;;;2.42;;
75044;SDS011;63614;56.026;35.960;2023-07-13T07:27:39;13.57;;;2.80;;
75044;SDS011;63614;56.026;35.960;2023-07-13T07:30:05;10.40;;;2.45;;
75044;SDS011;63614;56.026;35.960;2023-07-13T07:32:31;14.73;;;2.50;;
75044;SDS011;63614;56.026;35.960;2023-07-13T07:34:58;5.00;;;2.35;;
75044;SDS011;63614;56.026;35.960;2023-07-13T07:37:24;8.50;;;3.00;;
75044;SDS011;63614;56.026;35.960;2023-07-13T07:39:49;7.03;;;2.35;;
75044;SDS011;63614;56.026;35.960;2023-07-13T07:42:15;14.23;;;3.10;;
75044;SDS011;63614;56.026;35.960;2023-07-13T07:44:42;9.25;;;2.95;;
75044;SDS011;63614;56.026;35.960;2023-07-13T07:47:08;8.05;;;2.85;;
75044;SDS011;63614;56.026;35.960;2023-07-13T07:49:36;10.85;;;2.80;;
75044;SDS011;63614;56.026;35.960;2023-07-13T07:52:03;4.22;;;2.45;;
75044;SDS011;63614;56.026;35.960;2023-07-13T07:54:29;18.20;;;3.10;;
75044;SDS011;63614;56.026;35.960;2023-07-13T07:56:55;8.32;;;3.25;;
75044;SDS011;63614;56.026;35.960;2023-07-13T07:59:21;15.88;;;3.35;;
75044;SDS011;63614;56.026;35.960;2023-07-13T08:01:47;13.57;;;3.53;;
75044;SDS011;63614;56.026;35.960;2023-07-13T08:04:16;15.05;;;3.28;;
75044;SDS011;63614;56.026;35.960;2023-07-13T08:06:44;9.23;;;3.08;;
75044;SDS011;63614;56.026;35.960;2023-07-13T08:09:09;9.43;;;3.08;;
75044;SDS011;63614;56.026;35.960;2023-07-13T08:11:35;10.68;;;2.95;;
75044;SDS011;63614;56.026;35.960;2023-07-13T08:14:01;9.82;;;3.30;;
75044;SDS011;63614;56.026;35.960;2023-07-13T08:16:27;14.00;;;3.20;;
75044;SDS011;63614;56.026;35.960;2023-07-13T08:18:55;7.22;;;3.17;;
75044;SDS011;63614;56.026;35.960;2023-07-13T08:21:21;15.98;;;3.55;;
75044;SDS011;63614;56.026;35.960;2023-07-13T08:23:47;11.70;;;3.15;;
75044;SDS011;63614;56.026;35.960;2023-07-13T08:26:13;8.45;;;3.30;;
75044;SDS011;63614;56.026;35.960;2023-07-13T08:28:41;10.85;;;3.67;;
75044;SDS011;63614;56.026;35.960;2023-07-13T08:31:07;8.52;;;3.25;;
75044;SDS011;63614;56.026;35.960;2023-07-13T08:33:34;17.67;;;3.60;;
75044;SDS011;63614;56.026;35.960;2023-07-13T08:36:06;15.93;;;4.13;;
75044;SDS011;63614;56.026;35.960;2023-07-13T08:38:32;20.50;;;3.20;;
75044;SDS011;63614;56.026;35.960;2023-07-13T08:40:58;9.80;;;2.97;;
75044;SDS011;63614;56.026;35.960;2023-07-13T08:43:33;8.80;;;2.78;;
75044;SDS011;63614;56.026;35.960;2023-07-13T08:49:10;10.87;;;2.80;;
75044;SDS011;63614;56.026;35.960;2023-07-13T08:51:46;3.42;;;2.28;;
75044;SDS011;63614;56.026;35.960;2023-07-13T08:54:34;8.95;;;2.60;;
75044;SDS011;63614;56.026;35.960;2023-07-13T08:57:20;9.10;;;2.60;;
75044;SDS011;63614;56.026;35.960;2023-07-13T08:59:49;5.63;;;2.30;;
75044;SDS011;63614;56.026;35.960;2023-07-13T09:02:28;6.35;;;2.75;;
75044;SDS011;63614;56.026;35.960;2023-07-13T09:10:31;7.85;;;2.50;;
75044;SDS011;63614;56.026;35.960;2023-07-13T09:15:58;5.90;;;2.40;;
75044;SDS011;63614;56.026;35.960;2023-07-13T09:18:30;7.43;;;2.95;;
75044;SDS011;63614;56.026;35.960;2023-07-13T09:21:15;10.45;;;2.67;;
75044;SDS011;63614;56.026;35.960;2023-07-13T09:23:45;6.53;;;2.60;;
75044;SDS011;63614;56.026;35.960;2023-07-13T09:28:42;6.10;;;2.15;;
75044;SDS011;63614;56.026;35.960;2023-07-13T09:31:15;6.30;;;2.55;;
75044;SDS011;63614;56.026;35.960;2023-07-13T09:33:44;6.05;;;2.60;;
75044;SDS011;63614;56.026;35.960;2023-07-13T09:36:30;8.00;;;2.30;;
75044;SDS011;63614;56.026;35.960;2023-07-13T09:44:30;5.05;;;2.10;;
75044;SDS011;63614;56.026;35.960;2023-07-13T09:47:01;5.68;;;2.30;;
75044;SDS011;63614;56.026;35.960;2023-07-13T09:49:34;6.40;;;2.38;;
75044;SDS011;63614;56.026;35.960;2023-07-13T09:52:04;5.50;;;2.58;;
75044;SDS011;63614;56.026;35.960;2023-07-13T09:54:36;7.50;;;2.50;;
75044;SDS011;63614;56.026;35.960;2023-07-13T09:57:12;10.27;;;2.60;;
75044;SDS011;63614;56.026;35.960;2023-07-13T09:59:43;6.82;;;1.88;;
75044;SDS011;63614;56.026;35.960;2023-07-13T10:05:22;9.85;;;2.42;;
75044;SDS011;63614;56.026;35.960;2023-07-13T10:07:50;7.60;;;2.55;;
75044;SDS011;63614;56.026;35.960;2023-07-13T10:10:18;8.37;;;2.47;;
75044;SDS011;63614;56.026;35.960;2023-07-13T10:12:46;9.07;;;2.33;;
75044;SDS011;63614;56.026;35.960;2023-07-13T10:15:18;9.65;;;2.17;;
75044;SDS011;63614;56.026;35.960;2023-07-13T10:17:46;9.27;;;2.53;;
75044;SDS011;63614;56.026;35.960;2023-07-13T10:20:14;6.40;;;2.30;;
75044;SDS011;63614;56.026;35.960;2023-07-13T10:25:16;12.23;;;2.30;;
75044;SDS011;63614;56.026;35.960;2023-07-13T10:27:45;5.70;;;2.25;;
75044;SDS011;63614;56.026;35.960;2023-07-13T10:30:19;8.05;;;2.20;;
75044;SDS011;63614;56.026;35.960;2023-07-13T10:32:53;5.80;;;2.28;;
75044;SDS011;63614;56.026;35.960;2023-07-13T10:35:21;13.27;;;2.10;;
75044;SDS011;63614;56.026;35.960;2023-07-13T10:37:52;9.38;;;2.20;;
75044;SDS011;63614;56.026;35.960;2023-07-13T10:43:23;4.53;;;2.22;;
75044;SDS011;63614;56.026;35.960;2023-07-13T10:45:57;11.05;;;2.10;;
75044;SDS011;63614;56.026;35.960;2023-07-13T10:48:25;8.95;;;2.20;;
75044;SDS011;63614;56.026;35.960;2023-07-13T10:50:52;14.15;;;2.53;;
75044;SDS011;63614;56.026;35.960;2023-07-13T10:53:21;15.00;;;2.78;;
75044;SDS011;63614;56.026;35.960;2023-07-13T11:01:04;20.98;;;3.08;;
75044;SDS011;63614;56.026;35.960;2023-07-13T11:03:33;7.35;;;3.10;;
75044;SDS011;63614;56.026;35.960;2023-07-13T11:13:56;8.73;;;3.28;;
75044;SDS011;63614;56.026;35.960;2023-07-13T11:19:08;10.43;;;2.70;;
75044;SDS011;63614;56.026;35.960;2023-07-13T11:27:36;14.15;;;2.67;;
75044;SDS011;63614;56.026;35.960;2023-07-13T11:33:02;15.35;;;2.88;;
75044;SDS011;63614;56.026;35.960;2023-07-13T11:35:40;8.35;;;2.83;;
75044;SDS011;63614;56.026;35.960;2023-07-13T11:38:21;5.47;;;2.40;;
75044;SDS011;63614;56.026;35.960;2023-07-13T11:40:50;17.20;;;2.85;;
75044;SDS011;63614;56.026;35.960;2023-07-13T11:43:18;12.15;;;2.85;;
75044;SDS011;63614;56.026;35.960;2023-07-13T11:45:44;9.20;;;2.83;;
75044;SDS011;63614;56.026;35.960;2023-07-13T11:48:44;8.18;;;2.58;;
75044;SDS011;63614;56.026;35.960;2023-07-13T11:51:03;5.78;;;2.78;;
75044;SDS011;63614;56.026;35.960;2023-07-13T11:53:38;12.68;;;2.88;;
75044;SDS011;63614;56.026;35.960;2023-07-13T11:56:06;10.45;;;4.68;;
75044;SDS011;63614;56.026;35.960;2023-07-13T11:58:32;5.60;;;2.80;;
75044;SDS011;63614;56.026;35.960;2023-07-13T12:01:02;12.18;;;3.22;;
75044;SDS011;63614;56.026;35.960;2023-07-13T12:03:30;13.93;;;2.75;;
75044;SDS011;63614;56.026;35.960;2023-07-13T12:06:02;8.30;;;2.90;;
75044;SDS011;63614;56.026;35.960;2023-07-13T12:08:39;7.53;;;2.60;;
75044;SDS011;63614;56.026;35.960;2023-07-13T12:11:09;11.43;;;3.10;;
75044;SDS011;63614;56.026;35.960;2023-07-13T12:13:43;15.32;;;2.63;;
75044;SDS011;63614;56.026;35.960;2023-07-13T12:16:17;5.50;;;2.90;;
75044;SDS011;63614;56.026;35.960;2023-07-13T12:18:52;8.60;;;2.55;;
75044;SDS011;63614;56.026;35.960;2023-07-13T12:21:23;4.25;;;2.60;;
75044;SDS011;63614;56.026;35.960;2023-07-13T12:24:00;10.80;;;2.83;;
75044;SDS011;63614;56.026;35.960;2023-07-13T12:26:30;7.22;;;2.60;;
75044;SDS011;63614;56.026;35.960;2023-07-13T12:28:59;5.35;;;2.83;;
75044;SDS011;63614;56.026;35.960;2023-07-13T12:31:31;5.38;;;3.05;;
75044;SDS011;63614;56.026;35.960;2023-07-13T12:34:06;17.27;;;3.40;;
75044;SDS011;63614;56.026;35.960;2023-07-13T12:36:49;18.52;;;3.25;;
75044;SDS011;63614;56.026;35.960;2023-07-13T12:39:17;14.60;;;3.70;;
75044;SDS011;63614;56.026;35.960;2023-07-13T12:41:44;12.63;;;3.40;;
75044;SDS011;63614;56.026;35.960;2023-07-13T12:44:15;9.50;;;3.58;;
75044;SDS011;63614;56.026;35.960;2023-07-13T12:49:43;7.60;;;3.05;;
75044;SDS011;63614;56.026;35.960;2023-07-13T12:52:14;9.80;;;4.80;;
75044;SDS011;63614;56.026;35.960;2023-07-13T12:54:51;6.43;;;2.70;;
75044;SDS011;63614;56.026;35.960;2023-07-13T12:57:22;13.13;;;3.40;;
75044;SDS011;63614;56.026;35.960;2023-07-13T12:59:51;6.82;;;3.28;;
75044;SDS011;63614;56.026;35.960;2023-07-13T13:02:27;5.57;;;3.10;;
75044;SDS011;63614;56.026;35.960;2023-07-13T13:04:59;7.88;;;2.90;;
75044;SDS011;63614;56.026;35.960;2023-07-13T13:07:28;11.73;;;3.30;;
75044;SDS011;63614;56.026;35.960;2023-07-13T13:09:54;9.20;;;3.00;;
75044;SDS011;63614;56.026;35.960;2023-07-13T13:12:21;12.00;;;3.03;;
75044;SDS011;63614;56.026;35.960;2023-07-13T13:14:49;24.38;;;3.38;;
75044;SDS011;63614;56.026;35.960;2023-07-13T13:17:21;7.95;;;3.20;;
75044;SDS011;63614;56.026;35.960;2023-07-13T13:19:50;6.82;;;3.30;;
75044;SDS011;63614;56.026;35.960;2023-07-13T13:22:19;8.85;;;3.55;;
75044;SDS011;63614;56.026;35.960;2023-07-13T13:24:46;9.32;;;3.80;;
75044;SDS011;63614;56.026;35.960;2023-07-13T13:27:16;10.10;;;3.20;;
75044;SDS011;63614;56.026;35.960;2023-07-13T13:29:47;7.45;;;2.67;;
75044;SDS011;63614;56.026;35.960;2023-07-13T13:32:17;16.23;;;3.28;;
75044;SDS011;63614;56.026;35.960;2023-07-13T13:34:44;21.98;;;4.70;;
75044;SDS011;63614;56.026;35.960;2023-07-13T13:37:43;14.27;;;5.80;;
75044;SDS011;63614;56.026;35.960;2023-07-13T13:40:13;19.27;;;5.20;;
75044;SDS011;63614;56.026;35.960;2023-07-13T13:42:41;21.98;;;5.18;;
75044;SDS011;63614;56.026;35.960;2023-07-13T13:45:08;14.32;;;5.72;;
75044;SDS011;63614;56.026;35.960;2023-07-13T13:47:35;13.80;;;5.22;;
75044;SDS011;63614;56.026;35.960;2023-07-13T13:50:15;25.20;;;4.73;;
75044;SDS011;63614;56.026;35.960;2023-07-13T13:52:42;14.25;;;5.35;;
75044;SDS011;63614;56.026;35.960;2023-07-13T13:55:13;16.37;;;5.53;;
75044;SDS011;63614;56.026;35.960;2023-07-13T13:57:40;17.98;;;4.78;;
75044;SDS011;63614;56.026;35.960;2023-07-13T14:00:06;13.68;;;4.65;;
75044;SDS011;63614;56.026;35.960;2023-07-13T14:02:34;15.38;;;4.68;;
75044;SDS011;63614;56.026;35.960;2023-07-13T14:05:01;24.90;;;4.82;;
75044;SDS011;63614;56.026;35.960;2023-07-13T14:07:29;15.77;;;4.47;;
75044;SDS011;63614;56.026;35.960;2023-07-13T14:09:56;21.42;;;5.13;;
75044;SDS011;63614;56.026;35.960;2023-07-13T14:12:27;16.58;;;4.85;;
75044;SDS011;63614;56.026;35.960;2023-07-13T14:14:55;9.88;;;3.85;;
75044;SDS011;63614;56.026;35.960;2023-07-13T14:17:24;13.00;;;4.10;;
75044;SDS011;63614;56.026;35.960;2023-07-13T14:19:52;10.52;;;3.97;;
75044;SDS011;63614;56.026;35.960;2023-07-13T14:22:23;14.75;;;3.90;;
75044;SDS011;63614;56.026;35.960;2023-07-13T14:24:51;10.50;;;3.42;;
75044;SDS011;63614;56.026;35.960;2023-07-13T14:27:22;10.82;;;3.30;;
75044;SDS011;63614;56.026;35.960;2023-07-13T14:29:48;12.30;;;4.22;;
75044;SDS011;63614;56.026;35.960;2023-07-13T14:32:14;17.02;;;4.10;;
75044;SDS011;63614;56.026;35.960;2023-07-13T14:34:39;20.10;;;3.70;;
75044;SDS011;63614;56.026;35.960;2023-07-13T14:37:14;13.43;;;3.50;;
75044;SDS011;63614;56.026;35.960;2023-07-13T14:39:51;16.00;;;3.67;;
75044;SDS011;63614;56.026;35.960;2023-07-13T14:42:20;17.65;;;3.80;;
75044;SDS011;63614;56.026;35.960;2023-07-13T14:44:45;12.70;;;3.83;;
75044;SDS011;63614;56.026;35.960;2023-07-13T14:47:11;9.48;;;3.50;;
75044;SDS011;63614;56.026;35.960;2023-07-13T14:49:38;6.43;;;3.30;;
75044;SDS011;63614;56.026;35.960;2023-07-13T14:54:36;12.00;;;3.22;;
75044;SDS011;63614;56.026;35.960;2023-07-13T14:57:12;5.70;;;2.67;;
75044;SDS011;63614;56.026;35.960;2023-07-13T14:59:42;9.40;;;2.95;;
75044;SDS011;63614;56.026;35.960;2023-07-13T15:02:32;8.57;;;3.22;;
75044;SDS011;63614;56.026;35.960;2023-07-13T15:04:59;17.10;;;2.85;;
75044;SDS011;63614;56.026;35.960;2023-07-13T15:07:28;11.38;;;3.17;;
75044;SDS011;63614;56.026;35.960;2023-07-13T15:09:55;5.70;;;2.83;;
75044;SDS011;63614;56.026;35.960;2023-07-13T15:12:21;5.68;;;2.83;;
75044;SDS011;63614;56.026;35.960;2023-07-13T15:14:46;5.70;;;2.72;;
75044;SDS011;63614;56.026;35.960;2023-07-13T15:17:24;9.95;;;3.10;;
75044;SDS011;63614;56.026;35.960;2023-07-13T15:20:12;9.90;;;4.13;;
75044;SDS011;63614;56.026;35.960;2023-07-13T15:22:48;6.90;;;2.85;;
75044;SDS011;63614;56.026;35.960;2023-07-13T15:25:15;7.68;;;2.65;;
75044;SDS011;63614;56.026;35.960;2023-07-13T15:27:54;7.63;;;2.90;;
75044;SDS011;63614;56.026;35.960;2023-07-13T15:30:21;9.65;;;3.00;;
75044;SDS011;63614;56.026;35.960;2023-07-13T15:32:47;5.40;;;3.10;;
75044;SDS011;63614;56.026;35.960;2023-07-13T15:35:21;7.68;;;3.17;;
75044;SDS011;63614;56.026;35.960;2023-07-13T15:37:48;5.78;;;3.05;;
75044;SDS011;63614;56.026;35.960;2023-07-13T15:40:15;6.65;;;2.92;;
75044;SDS011;63614;56.026;35.960;2023-07-13T15:42:42;5.35;;;3.30;;
75044;SDS011;63614;56.026;35.960;2023-07-13T15:45:19;4.97;;;2.83;;